Campiña-No se requiere un especial cuidado respecto a la situación meteorológica.   -   No hay avisos

Informes METAR

 

LEZL - Sevilla, Spain
Distancia de la estación: ENE 8km
Actualización: 17/06/2019 17:30
Despejado
Despejado
 Viento de OSO
Viento: OSO 19 km/h
Temperatura: 32°C
Rocío: 11°C
Humedad: 27%
Barómetro: 1014 hPa
Resumen: Despejado
Visibilidad: mayor de 10 km
2019/06/17 15:30 LEZL 171530Z 24010KT 200V280 CAVOK 32/11 Q1014 NOSIG
LEMO - Morón, Spain
Distancia de la estación: SE 43km
Actualización: 17/06/2019 17:00
Despejado
Despejado
 Viento de O
Viento: O 26 km/h
Temperatura: 30°C
Rocío: 12°C
Humedad: 33%
Barómetro: 1014 hPa
Resumen: Despejado
Visibilidad: mayor de 10 km
2019/06/17 15:00 LEMO 171500Z 26014KT 210V290 CAVOK 30/12 Q1014 NOSIG
LEJR - Jeréz, Spain
Distancia de la estación: S 71km
Actualización: 17/06/2019 17:30
Despejado
Despejado
 Viento de SO
Viento: SO 20 km/h
Temperatura: 27°C
índice de calor: 27°C
Rocío: 13°C
Humedad: 42%
Barómetro: 1015 hPa
Resumen: Despejado
Visibilidad: mayor de 10 km
2019/06/17 15:30 LEJR 171530Z 22011KT 190V260 CAVOK 27/13 Q1015
 
LERT - Rota, Spain
Distancia de la estación: SSO 89km
Actualización: 17/06/2019 17:00
Despejado
Despejado
 Viento de O
Viento: O 22 km/h
Temperatura: 22°C
Rocío: 16°C
Humedad: 69%
Barómetro: 1016 hPa
Resumen: Despejado
Visibilidad: mayor de 10 km
2019/06/17 15:00 LERT 171500Z 26012KT 230V290 CAVOK 22/16 Q1016 NOSIG
LEMG - Málaga, Spain
Distancia de la estación: ESE 157km
Actualización: 17/06/2019 17:30
Despejado
Despejado
 Viento de SE
Viento: SE 20 km/h
Temperatura: 24°C
Rocío: 14°C
Humedad: 54%
Barómetro: 1015 hPa
Resumen: Despejado
Visibilidad: mayor de 10 km
2019/06/17 15:30 LEMG 171530Z 13011KT CAVOK 24/14 Q1015 NOSIG
LEBA - Córdoba, Spain
Distancia de la estación: ENE 115km
Actualización: 17/06/2019 17:30
Despejado
Despejado
 Viento de OSO
Viento: OSO 17 km/h
Temperatura: 32°C
Rocío: 6°C
Humedad: 20%
Barómetro: 1013 hPa
Resumen: Despejado
Visibilidad: mayor de 10 km
2019/06/17 15:30 LEBA 171530Z 25009KT 200V310 CAVOK 32/06 Q1013
 
LEGR - Granada, Spain
Distancia de la estación: E 198km
Actualización: 17/06/2019 17:30
Poco nuboso
Poco nuboso
 Viento de SSO
Viento: SSO 13 km/h
Temperatura: 33°C
Rocío: 1°C
Humedad: 13%
Barómetro: 1015 hPa
Nubes: Poco nuboso
Visibilidad: 10 km
Detalles de las nubes: Poco nuboso 1524 m
2019/06/17 15:30 LEGR 171530Z 20007KT 090V250 9999 FEW050 33/01 Q1015
LEAM - Almería, Spain
Distancia de la estación: E 326km
Actualización: 17/06/2019 17:30
Despejado
Despejado
 Viento de S
Viento: S 9 km/h
Temperatura: 22°C
Rocío: 17°C
Humedad: 73%
Barómetro: 1016 hPa
Resumen: Despejado
Visibilidad: mayor de 10 km
2019/06/17 15:30 LEAM 171530Z 18005KT 140V250 CAVOK 22/17 Q1016
LEMD - Madrid/Barajas, Spain
Distancia de la estación: NNE 402km
Actualización: 17/06/2019 17:30
Despejado
Despejado
 Viento de S
Viento: S 19 km/h, Racha: 37 km/h
Temperatura: 31°C
Rocío: 0°C
Humedad: 13%
Barómetro: 1014 hPa
Resumen: Despejado
Visibilidad: mayor de 10 km
2019/06/17 15:30 LEMD 171530Z 19010G20KT 090V240 CAVOK 31/M00 Q1014 NOSIG
 
LEVD - Valladolid, Spain
Distancia de la estación: N 492km
Actualización: 17/06/2019 17:30
Despejado
Despejado
 Viento de OSO
Viento: OSO 17 km/h
Temperatura: 27°C
Rocío: 1°C
Humedad: 18%
Barómetro: 1015 hPa
Resumen: Despejado
Visibilidad: mayor de 10 km
2019/06/17 15:30 LEVD 171530Z 24009KT 210V280 CAVOK 27/01 Q1015
LEBL - Barcelona, Spain
Distancia de la estación: NE 816km
Actualización: 17/06/2019 17:30
Despejado
Despejado
 Viento de SSO
Viento: SSO 26 km/h
Temperatura: 23°C
Rocío: 18°C
Humedad: 74%
Barómetro: 1015 hPa
Resumen: Despejado
Visibilidad: mayor de 10 km
2019/06/17 15:30 LEBL 171530Z 21014KT CAVOK 23/18 Q1015 NOSIG
LEVC - Valencia, Spain
Distancia de la estación: ENE 535km
Actualización: 17/06/2019 17:30
Poco nuboso
Poco nuboso
 Viento de ENE
Viento: ENE 15 km/h
Temperatura: 26°C
Rocío: 17°C
Humedad: 58%
Barómetro: 1014 hPa
Nubes: Poco nuboso
Visibilidad: 10 km
Detalles de las nubes: Poco nuboso 1219 m
2019/06/17 15:30 LEVC 171530Z 07008KT 040V110 9999 FEW040 26/17 Q1014 NOSIG